sensor_id;sensor_type;location;lat;lon;timestamp;temperature;humidity
39601;DHT22;25297;44.758;11.310;2024-03-02T00:00:23;15.20;99.90
39601;DHT22;25297;44.758;11.310;2024-03-02T00:02:50;15.10;99.90
39601;DHT22;25297;44.758;11.310;2024-03-02T00:05:21;15.10;99.90
39601;DHT22;25297;44.758;11.310;2024-03-02T00:07:55;15.10;99.90
39601;DHT22;25297;44.758;11.310;2024-03-02T00:10:25;15.10;99.90
39601;DHT22;25297;44.758;11.310;2024-03-02T00:12:57;15.10;99.90
39601;DHT22;25297;44.758;11.310;2024-03-02T00:17:58;15.10;99.90
39601;DHT22;25297;44.758;11.310;2024-03-02T00:20:24;15.10;99.90
39601;DHT22;25297;44.758;11.310;2024-03-02T00:23:02;15.10;99.90
39601;DHT22;25297;44.758;11.310;2024-03-02T00:28:25;15.20;99.90
39601;DHT22;25297;44.758;11.310;2024-03-02T00:30:57;15.10;99.90
39601;DHT22;25297;44.758;11.310;2024-03-02T00:33:26;15.10;99.90
39601;DHT22;25297;44.758;11.310;2024-03-02T00:35:53;15.10;99.90
39601;DHT22;25297;44.758;11.310;2024-03-02T00:38:18;15.10;99.90
39601;DHT22;25297;44.758;11.310;2024-03-02T00:40:45;15.20;99.90
39601;DHT22;25297;44.758;11.310;2024-03-02T00:46:03;15.20;99.90
39601;DHT22;25297;44.758;11.310;2024-03-02T00:48:29;15.20;99.90
39601;DHT22;25297;44.758;11.310;2024-03-02T00:50:57;15.20;99.90
39601;DHT22;25297;44.758;11.310;2024-03-02T00:53:23;15.20;99.90
39601;DHT22;25297;44.758;11.310;2024-03-02T00:55:51;15.20;99.90
39601;DHT22;25297;44.758;11.310;2024-03-02T00:58:17;15.10;99.90
39601;DHT22;25297;44.758;11.310;2024-03-02T01:00:43;15.20;99.90
39601;DHT22;25297;44.758;11.310;2024-03-02T01:03:08;15.20;99.90
39601;DHT22;25297;44.758;11.310;2024-03-02T01:05:36;15.20;99.90
39601;DHT22;25297;44.758;11.310;2024-03-02T01:08:02;15.20;99.90
39601;DHT22;25297;44.758;11.310;2024-03-02T01:10:27;15.20;99.90
39601;DHT22;25297;44.758;11.310;2024-03-02T01:12:53;15.20;99.90
39601;DHT22;25297;44.758;11.310;2024-03-02T01:15:19;15.20;99.90
39601;DHT22;25297;44.758;11.310;2024-03-02T01:17:45;15.20;99.90
39601;DHT22;25297;44.758;11.310;2024-03-02T01:20:11;15.20;99.90
39601;DHT22;25297;44.758;11.310;2024-03-02T01:22:36;15.20;99.90
39601;DHT22;25297;44.758;11.310;2024-03-02T01:25:03;15.20;99.90
39601;DHT22;25297;44.758;11.310;2024-03-02T01:27:28;15.20;99.90
39601;DHT22;25297;44.758;11.310;2024-03-02T01:29:54;15.20;99.90
39601;DHT22;25297;44.758;11.310;2024-03-02T01:32:20;15.20;99.90
39601;DHT22;25297;44.758;11.310;2024-03-02T01:34:45;15.20;99.90
39601;DHT22;25297;44.758;11.310;2024-03-02T01:37:11;15.20;99.90
39601;DHT22;25297;44.758;11.310;2024-03-02T01:39:37;15.20;99.90
39601;DHT22;25297;44.758;11.310;2024-03-02T01:42:03;15.20;99.90
39601;DHT22;25297;44.758;11.310;2024-03-02T01:44:28;15.20;99.90
39601;DHT22;25297;44.758;11.310;2024-03-02T01:46:54;15.20;99.90
39601;DHT22;25297;44.758;11.310;2024-03-02T01:49:20;15.10;99.90
39601;DHT22;25297;44.758;11.310;2024-03-02T01:51:45;15.10;99.90
39601;DHT22;25297;44.758;11.310;2024-03-02T01:54:11;15.10;99.90
39601;DHT22;25297;44.758;11.310;2024-03-02T01:56:37;15.10;99.90
39601;DHT22;25297;44.758;11.310;2024-03-02T01:59:03;15.10;99.90
39601;DHT22;25297;44.758;11.310;2024-03-02T02:01:28;15.10;99.90
39601;DHT22;25297;44.758;11.310;2024-03-02T02:03:54;15.10;99.90
39601;DHT22;25297;44.758;11.310;2024-03-02T02:06:21;15.00;99.90
39601;DHT22;25297;44.758;11.310;2024-03-02T02:08:47;15.00;99.90
39601;DHT22;25297;44.758;11.310;2024-03-02T02:11:15;15.10;99.90
39601;DHT22;25297;44.758;11.310;2024-03-02T02:13:41;15.10;99.90
39601;DHT22;25297;44.758;11.310;2024-03-02T02:16:07;15.00;99.90
39601;DHT22;25297;44.758;11.310;2024-03-02T02:18:33;15.00;99.90
39601;DHT22;25297;44.758;11.310;2024-03-02T02:20:59;15.10;99.90
39601;DHT22;25297;44.758;11.310;2024-03-02T02:23:25;15.00;99.90
39601;DHT22;25297;44.758;11.310;2024-03-02T02:25:50;15.10;99.90
39601;DHT22;25297;44.758;11.310;2024-03-02T02:28:16;15.00;99.90
39601;DHT22;25297;44.758;11.310;2024-03-02T02:30:42;15.00;99.90
39601;DHT22;25297;44.758;11.310;2024-03-02T02:33:08;15.00;99.90
39601;DHT22;25297;44.758;11.310;2024-03-02T02:35:34;15.00;99.90
39601;DHT22;25297;44.758;11.310;2024-03-02T02:38:00;15.00;99.90
39601;DHT22;25297;44.758;11.310;2024-03-02T02:40:26;15.00;99.90
39601;DHT22;25297;44.758;11.310;2024-03-02T02:42:52;15.00;99.90
39601;DHT22;25297;44.758;11.310;2024-03-02T02:45:18;15.00;99.90
39601;DHT22;25297;44.758;11.310;2024-03-02T02:47:44;15.00;99.90
39601;DHT22;25297;44.758;11.310;2024-03-02T02:50:11;15.00;99.90
39601;DHT22;25297;44.758;11.310;2024-03-02T02:52:38;14.90;99.90
39601;DHT22;25297;44.758;11.310;2024-03-02T02:55:09;14.90;99.90
39601;DHT22;25297;44.758;11.310;2024-03-02T02:57:36;14.90;99.90
39601;DHT22;25297;44.758;11.310;2024-03-02T03:00:14;14.90;99.90
39601;DHT22;25297;44.758;11.310;2024-03-02T03:02:46;15.00;99.90
39601;DHT22;25297;44.758;11.310;2024-03-02T03:05:13;14.90;99.90
39601;DHT22;25297;44.758;11.310;2024-03-02T03:07:40;15.00;99.90
39601;DHT22;25297;44.758;11.310;2024-03-02T03:10:07;15.00;99.90
39601;DHT22;25297;44.758;11.310;2024-03-02T03:12:33;15.00;99.90
39601;DHT22;25297;44.758;11.310;2024-03-02T03:14:59;14.90;99.90
39601;DHT22;25297;44.758;11.310;2024-03-02T03:17:25;15.00;99.90
39601;DHT22;25297;44.758;11.310;2024-03-02T03:19:51;15.00;99.90
39601;DHT22;25297;44.758;11.310;2024-03-02T03:22:17;14.90;99.90
39601;DHT22;25297;44.758;11.310;2024-03-02T03:24:43;15.00;99.90
39601;DHT22;25297;44.758;11.310;2024-03-02T03:27:09;15.00;99.90
39601;DHT22;25297;44.758;11.310;2024-03-02T03:29:36;15.00;99.90
39601;DHT22;25297;44.758;11.310;2024-03-02T03:32:01;14.90;99.90
39601;DHT22;25297;44.758;11.310;2024-03-02T03:34:27;14.90;99.90
39601;DHT22;25297;44.758;11.310;2024-03-02T03:36:54;14.90;99.90
39601;DHT22;25297;44.758;11.310;2024-03-02T03:39:20;14.90;99.90
39601;DHT22;25297;44.758;11.310;2024-03-02T03:41:46;14.90;99.90
39601;DHT22;25297;44.758;11.310;2024-03-02T03:44:12;14.90;99.90
39601;DHT22;25297;44.758;11.310;2024-03-02T03:46:37;14.90;99.90
39601;DHT22;25297;44.758;11.310;2024-03-02T03:49:03;14.90;99.90
39601;DHT22;25297;44.758;11.310;2024-03-02T03:51:29;14.90;99.90
39601;DHT22;25297;44.758;11.310;2024-03-02T03:53:56;14.90;99.90
39601;DHT22;25297;44.758;11.310;2024-03-02T03:56:21;14.90;99.90
39601;DHT22;25297;44.758;11.310;2024-03-02T03:58:47;14.90;99.90
39601;DHT22;25297;44.758;11.310;2024-03-02T04:01:12;14.90;99.90
39601;DHT22;25297;44.758;11.310;2024-03-02T04:03:38;14.90;99.90
39601;DHT22;25297;44.758;11.310;2024-03-02T04:06:04;14.80;99.90
39601;DHT22;25297;44.758;11.310;2024-03-02T04:08:30;14.90;99.90
39601;DHT22;25297;44.758;11.310;2024-03-02T04:10:55;14.80;99.90
39601;DHT22;25297;44.758;11.310;2024-03-02T04:13:21;14.80;99.90
39601;DHT22;25297;44.758;11.310;2024-03-02T04:15:47;14.80;99.90
39601;DHT22;25297;44.758;11.310;2024-03-02T04:18:12;14.80;99.90
39601;DHT22;25297;44.758;11.310;2024-03-02T04:20:38;14.80;99.90
39601;DHT22;25297;44.758;11.310;2024-03-02T04:23:04;14.80;99.90
39601;DHT22;25297;44.758;11.310;2024-03-02T04:25:29;14.80;99.90
39601;DHT22;25297;44.758;11.310;2024-03-02T04:27:55;14.80;99.90
39601;DHT22;25297;44.758;11.310;2024-03-02T04:30:21;14.80;99.90
39601;DHT22;25297;44.758;11.310;2024-03-02T04:32:46;14.80;99.90
39601;DHT22;25297;44.758;11.310;2024-03-02T04:35:13;14.80;99.90
39601;DHT22;25297;44.758;11.310;2024-03-02T04:37:38;14.80;99.90
39601;DHT22;25297;44.758;11.310;2024-03-02T04:40:05;14.80;99.90
39601;DHT22;25297;44.758;11.310;2024-03-02T04:42:34;14.70;99.90
39601;DHT22;25297;44.758;11.310;2024-03-02T04:44:59;14.80;99.90
39601;DHT22;25297;44.758;11.310;2024-03-02T04:47:25;14.70;99.90
39601;DHT22;25297;44.758;11.310;2024-03-02T04:49:50;14.80;99.90
39601;DHT22;25297;44.758;11.310;2024-03-02T04:52:16;14.80;99.90
39601;DHT22;25297;44.758;11.310;2024-03-02T04:54:42;14.80;99.90
39601;DHT22;25297;44.758;11.310;2024-03-02T04:57:27;14.80;99.90
39601;DHT22;25297;44.758;11.310;2024-03-02T04:59:52;14.80;99.90
39601;DHT22;25297;44.758;11.310;2024-03-02T05:02:18;14.80;99.90
39601;DHT22;25297;44.758;11.310;2024-03-02T05:04:43;14.70;99.90
39601;DHT22;25297;44.758;11.310;2024-03-02T05:07:09;14.70;99.90
39601;DHT22;25297;44.758;11.310;2024-03-02T05:09:35;14.70;99.90
39601;DHT22;25297;44.758;11.310;2024-03-02T05:12:01;14.70;99.90
39601;DHT22;25297;44.758;11.310;2024-03-02T05:14:41;14.70;99.90
39601;DHT22;25297;44.758;11.310;2024-03-02T05:17:07;14.70;99.90
39601;DHT22;25297;44.758;11.310;2024-03-02T05:19:32;14.70;99.90
39601;DHT22;25297;44.758;11.310;2024-03-02T05:21:58;14.70;99.90
39601;DHT22;25297;44.758;11.310;2024-03-02T05:24:24;14.70;99.90
39601;DHT22;25297;44.758;11.310;2024-03-02T05:26:52;14.70;99.90
39601;DHT22;25297;44.758;11.310;2024-03-02T05:29:18;14.70;99.90
39601;DHT22;25297;44.758;11.310;2024-03-02T05:31:44;14.70;99.90
39601;DHT22;25297;44.758;11.310;2024-03-02T05:34:09;14.70;99.90
39601;DHT22;25297;44.758;11.310;2024-03-02T05:36:35;14.60;99.90
39601;DHT22;25297;44.758;11.310;2024-03-02T05:39:01;14.70;99.90
39601;DHT22;25297;44.758;11.310;2024-03-02T05:41:28;14.70;99.90
39601;DHT22;25297;44.758;11.310;2024-03-02T05:43:54;14.60;99.90
39601;DHT22;25297;44.758;11.310;2024-03-02T05:46:19;14.60;99.90
39601;DHT22;25297;44.758;11.310;2024-03-02T05:48:45;14.70;99.90
39601;DHT22;25297;44.758;11.310;2024-03-02T05:51:10;14.70;99.90
39601;DHT22;25297;44.758;11.310;2024-03-02T05:53:36;14.70;99.90
39601;DHT22;25297;44.758;11.310;2024-03-02T05:56:04;14.70;99.90
39601;DHT22;25297;44.758;11.310;2024-03-02T05:58:30;14.70;99.90
39601;DHT22;25297;44.758;11.310;2024-03-02T06:01:11;14.70;99.90
39601;DHT22;25297;44.758;11.310;2024-03-02T06:03:37;14.70;99.90
39601;DHT22;25297;44.758;11.310;2024-03-02T06:06:03;14.70;99.90
39601;DHT22;25297;44.758;11.310;2024-03-02T06:08:28;14.70;99.90
39601;DHT22;25297;44.758;11.310;2024-03-02T06:10:54;14.70;99.90
39601;DHT22;25297;44.758;11.310;2024-03-02T06:13:21;14.70;99.90
39601;DHT22;25297;44.758;11.310;2024-03-02T06:15:47;14.70;99.90
39601;DHT22;25297;44.758;11.310;2024-03-02T06:18:12;14.70;99.90
39601;DHT22;25297;44.758;11.310;2024-03-02T06:20:38;14.70;99.90
39601;DHT22;25297;44.758;11.310;2024-03-02T06:23:04;14.70;99.90
39601;DHT22;25297;44.758;11.310;2024-03-02T06:25:30;14.70;99.90
39601;DHT22;25297;44.758;11.310;2024-03-02T06:27:56;14.70;99.90
39601;DHT22;25297;44.758;11.310;2024-03-02T06:30:21;14.70;99.90
39601;DHT22;25297;44.758;11.310;2024-03-02T06:32:47;14.70;99.90
39601;DHT22;25297;44.758;11.310;2024-03-02T06:35:12;14.80;99.90
39601;DHT22;25297;44.758;11.310;2024-03-02T06:37:38;14.80;99.90
39601;DHT22;25297;44.758;11.310;2024-03-02T06:40:06;14.80;99.90
39601;DHT22;25297;44.758;11.310;2024-03-02T06:42:33;14.80;99.90
39601;DHT22;25297;44.758;11.310;2024-03-02T06:44:59;14.90;99.90
39601;DHT22;25297;44.758;11.310;2024-03-02T06:47:25;14.80;99.90
39601;DHT22;25297;44.758;11.310;2024-03-02T06:49:50;14.80;99.90
39601;DHT22;25297;44.758;11.310;2024-03-02T06:52:16;14.80;99.90
39601;DHT22;25297;44.758;11.310;2024-03-02T06:54:42;14.90;99.90
39601;DHT22;25297;44.758;11.310;2024-03-02T06:57:08;14.80;99.90
39601;DHT22;25297;44.758;11.310;2024-03-02T06:59:34;14.90;99.90
39601;DHT22;25297;44.758;11.310;2024-03-02T07:01:59;14.90;99.90
39601;DHT22;25297;44.758;11.310;2024-03-02T07:04:25;14.90;99.90
39601;DHT22;25297;44.758;11.310;2024-03-02T07:06:51;14.90;99.90
39601;DHT22;25297;44.758;11.310;2024-03-02T07:09:17;14.90;99.90
39601;DHT22;25297;44.758;11.310;2024-03-02T07:11:43;14.90;99.90
39601;DHT22;25297;44.758;11.310;2024-03-02T07:14:08;14.90;99.90
39601;DHT22;25297;44.758;11.310;2024-03-02T07:16:36;15.00;99.90
39601;DHT22;25297;44.758;11.310;2024-03-02T07:19:03;14.90;99.90
39601;DHT22;25297;44.758;11.310;2024-03-02T07:21:29;14.90;99.90
39601;DHT22;25297;44.758;11.310;2024-03-02T07:23:55;14.90;99.90
39601;DHT22;25297;44.758;11.310;2024-03-02T07:26:20;14.90;99.90
39601;DHT22;25297;44.758;11.310;2024-03-02T07:28:47;14.90;99.90
39601;DHT22;25297;44.758;11.310;2024-03-02T07:31:16;15.00;99.90
39601;DHT22;25297;44.758;11.310;2024-03-02T07:33:44;14.90;99.90
39601;DHT22;25297;44.758;11.310;2024-03-02T07:36:10;14.90;99.90
39601;DHT22;25297;44.758;11.310;2024-03-02T07:38:36;14.90;99.90
39601;DHT22;25297;44.758;11.310;2024-03-02T07:41:02;14.90;99.90
39601;DHT22;25297;44.758;11.310;2024-03-02T07:43:30;14.90;99.90
39601;DHT22;25297;44.758;11.310;2024-03-02T07:45:57;14.90;99.90
39601;DHT22;25297;44.758;11.310;2024-03-02T07:48:23;15.00;99.90
39601;DHT22;25297;44.758;11.310;2024-03-02T07:50:48;15.00;99.90
39601;DHT22;25297;44.758;11.310;2024-03-02T07:53:14;15.00;99.90
39601;DHT22;25297;44.758;11.310;2024-03-02T07:55:40;15.10;99.90
39601;DHT22;25297;44.758;11.310;2024-03-02T07:58:06;15.10;99.90
39601;DHT22;25297;44.758;11.310;2024-03-02T08:00:32;15.10;99.90
39601;DHT22;25297;44.758;11.310;2024-03-02T08:02:58;15.10;99.90
39601;DHT22;25297;44.758;11.310;2024-03-02T08:05:24;15.10;99.90
39601;DHT22;25297;44.758;11.310;2024-03-02T08:07:49;15.10;99.90
39601;DHT22;25297;44.758;11.310;2024-03-02T08:10:18;15.20;99.90
39601;DHT22;25297;44.758;11.310;2024-03-02T08:12:45;15.20;99.90
39601;DHT22;25297;44.758;11.310;2024-03-02T08:15:11;15.20;99.90
39601;DHT22;25297;44.758;11.310;2024-03-02T08:17:39;15.20;99.90
39601;DHT22;25297;44.758;11.310;2024-03-02T08:20:11;15.20;99.90
39601;DHT22;25297;44.758;11.310;2024-03-02T08:22:37;15.20;99.90
39601;DHT22;25297;44.758;11.310;2024-03-02T08:25:02;15.20;99.90
39601;DHT22;25297;44.758;11.310;2024-03-02T08:27:28;15.20;99.90
39601;DHT22;25297;44.758;11.310;2024-03-02T08:29:54;15.20;99.90
39601;DHT22;25297;44.758;11.310;2024-03-02T08:32:19;15.20;99.90
39601;DHT22;25297;44.758;11.310;2024-03-02T08:34:45;15.20;99.90
39601;DHT22;25297;44.758;11.310;2024-03-02T08:37:11;15.30;99.90
39601;DHT22;25297;44.758;11.310;2024-03-02T08:39:36;15.30;99.90
39601;DHT22;25297;44.758;11.310;2024-03-02T08:42:02;15.30;99.90
39601;DHT22;25297;44.758;11.310;2024-03-02T08:44:29;15.30;99.90
39601;DHT22;25297;44.758;11.310;2024-03-02T08:46:55;15.30;99.90
39601;DHT22;25297;44.758;11.310;2024-03-02T08:49:21;15.30;99.90
39601;DHT22;25297;44.758;11.310;2024-03-02T08:51:47;15.30;99.90
39601;DHT22;25297;44.758;11.310;2024-03-02T08:54:23;15.30;99.90
39601;DHT22;25297;44.758;11.310;2024-03-02T08:56:52;15.40;99.90
39601;DHT22;25297;44.758;11.310;2024-03-02T08:59:18;15.40;99.90
39601;DHT22;25297;44.758;11.310;2024-03-02T09:01:43;15.40;99.90
39601;DHT22;25297;44.758;11.310;2024-03-02T09:04:10;15.40;99.90
39601;DHT22;25297;44.758;11.310;2024-03-02T09:06:36;15.40;99.90
39601;DHT22;25297;44.758;11.310;2024-03-02T09:09:02;15.50;99.90
39601;DHT22;25297;44.758;11.310;2024-03-02T09:11:28;15.50;99.90
39601;DHT22;25297;44.758;11.310;2024-03-02T09:13:54;15.50;99.90
39601;DHT22;25297;44.758;11.310;2024-03-02T09:16:21;15.50;99.90
39601;DHT22;25297;44.758;11.310;2024-03-02T09:18:47;15.50;99.90
39601;DHT22;25297;44.758;11.310;2024-03-02T09:21:12;15.50;99.90
39601;DHT22;25297;44.758;11.310;2024-03-02T09:23:38;15.60;99.90
39601;DHT22;25297;44.758;11.310;2024-03-02T09:26:05;15.60;99.90
39601;DHT22;25297;44.758;11.310;2024-03-02T09:28:31;15.60;99.90
39601;DHT22;25297;44.758;11.310;2024-03-02T09:30:56;15.60;99.90
39601;DHT22;25297;44.758;11.310;2024-03-02T09:33:22;15.60;99.90
39601;DHT22;25297;44.758;11.310;2024-03-02T09:35:47;15.70;99.90
39601;DHT22;25297;44.758;11.310;2024-03-02T09:38:14;15.70;99.90
39601;DHT22;25297;44.758;11.310;2024-03-02T09:40:41;15.70;99.90
39601;DHT22;25297;44.758;11.310;2024-03-02T09:43:07;15.70;99.90
39601;DHT22;25297;44.758;11.310;2024-03-02T09:45:34;15.70;99.90
39601;DHT22;25297;44.758;11.310;2024-03-02T09:48:00;15.70;99.90
39601;DHT22;25297;44.758;11.310;2024-03-02T09:50:25;15.70;99.90
39601;DHT22;25297;44.758;11.310;2024-03-02T09:52:52;15.70;99.90
39601;DHT22;25297;44.758;11.310;2024-03-02T09:55:20;15.80;99.90
39601;DHT22;25297;44.758;11.310;2024-03-02T09:57:46;15.80;99.90
39601;DHT22;25297;44.758;11.310;2024-03-02T10:00:14;15.80;99.90
39601;DHT22;25297;44.758;11.310;2024-03-02T10:02:41;15.80;99.90
39601;DHT22;25297;44.758;11.310;2024-03-02T10:05:08;15.90;99.90
39601;DHT22;25297;44.758;11.310;2024-03-02T10:07:34;15.90;99.90
39601;DHT22;25297;44.758;11.310;2024-03-02T10:10:13;16.00;99.90
39601;DHT22;25297;44.758;11.310;2024-03-02T10:12:38;16.00;99.90
39601;DHT22;25297;44.758;11.310;2024-03-02T10:15:04;16.00;99.90
39601;DHT22;25297;44.758;11.310;2024-03-02T10:17:31;16.10;99.90
39601;DHT22;25297;44.758;11.310;2024-03-02T10:19:57;16.10;99.90
39601;DHT22;25297;44.758;11.310;2024-03-02T10:22:23;16.20;99.90
39601;DHT22;25297;44.758;11.310;2024-03-02T10:24:49;16.20;99.90
39601;DHT22;25297;44.758;11.310;2024-03-02T10:27:17;16.30;99.90
39601;DHT22;25297;44.758;11.310;2024-03-02T10:29:46;16.30;99.90
39601;DHT22;25297;44.758;11.310;2024-03-02T10:32:12;16.30;99.90
39601;DHT22;25297;44.758;11.310;2024-03-02T10:34:43;16.30;99.90
39601;DHT22;25297;44.758;11.310;2024-03-02T10:37:11;16.30;99.90
39601;DHT22;25297;44.758;11.310;2024-03-02T10:39:37;16.30;99.90
39601;DHT22;25297;44.758;11.310;2024-03-02T10:42:06;16.30;99.90
39601;DHT22;25297;44.758;11.310;2024-03-02T10:44:32;16.30;99.90
39601;DHT22;25297;44.758;11.310;2024-03-02T10:47:03;16.30;99.90
39601;DHT22;25297;44.758;11.310;2024-03-02T10:49:32;16.40;99.90
39601;DHT22;25297;44.758;11.310;2024-03-02T10:51:58;16.40;99.90
39601;DHT22;25297;44.758;11.310;2024-03-02T10:54:24;16.40;99.90
39601;DHT22;25297;44.758;11.310;2024-03-02T10:56:58;16.50;99.90
39601;DHT22;25297;44.758;11.310;2024-03-02T10:59:33;16.50;99.90
39601;DHT22;25297;44.758;11.310;2024-03-02T11:02:00;16.50;99.90
39601;DHT22;25297;44.758;11.310;2024-03-02T11:04:30;16.60;99.90
39601;DHT22;25297;44.758;11.310;2024-03-02T11:07:04;16.60;99.90
39601;DHT22;25297;44.758;11.310;2024-03-02T11:09:34;16.60;99.90
39601;DHT22;25297;44.758;11.310;2024-03-02T11:14:51;16.60;99.90
39601;DHT22;25297;44.758;11.310;2024-03-02T11:17:19;16.50;99.90
39601;DHT22;25297;44.758;11.310;2024-03-02T11:19:46;16.50;99.90
39601;DHT22;25297;44.758;11.310;2024-03-02T11:22:13;16.50;99.90
39601;DHT22;25297;44.758;11.310;2024-03-02T11:24:48;16.50;99.90
39601;DHT22;25297;44.758;11.310;2024-03-02T11:27:14;16.50;99.90
39601;DHT22;25297;44.758;11.310;2024-03-02T11:32:17;16.50;99.90
39601;DHT22;25297;44.758;11.310;2024-03-02T11:34:46;16.50;99.90
39601;DHT22;25297;44.758;11.310;2024-03-02T11:37:13;16.50;99.90
39601;DHT22;25297;44.758;11.310;2024-03-02T11:39:40;16.50;99.90
39601;DHT22;25297;44.758;11.310;2024-03-02T11:42:06;16.50;99.90
39601;DHT22;25297;44.758;11.310;2024-03-02T11:44:34;16.50;99.90
39601;DHT22;25297;44.758;11.310;2024-03-02T11:47:01;16.50;99.90
39601;DHT22;25297;44.758;11.310;2024-03-02T11:52:08;16.60;99.90
39601;DHT22;25297;44.758;11.310;2024-03-02T11:54:38;16.70;99.90
39601;DHT22;25297;44.758;11.310;2024-03-02T11:57:12;16.90;99.90
39601;DHT22;25297;44.758;11.310;2024-03-02T11:59:39;17.00;99.90
39601;DHT22;25297;44.758;11.310;2024-03-02T12:02:06;17.20;99.90
39601;DHT22;25297;44.758;11.310;2024-03-02T12:04:31;17.30;99.90
39601;DHT22;25297;44.758;11.310;2024-03-02T12:06:59;17.40;99.90
39601;DHT22;25297;44.758;11.310;2024-03-02T12:09:26;17.50;99.90
39601;DHT22;25297;44.758;11.310;2024-03-02T12:12:04;17.60;99.90
39601;DHT22;25297;44.758;11.310;2024-03-02T12:14:34;17.70;99.90
39601;DHT22;25297;44.758;11.310;2024-03-02T12:17:01;17.80;99.90
39601;DHT22;25297;44.758;11.310;2024-03-02T12:19:27;17.80;99.90
39601;DHT22;25297;44.758;11.310;2024-03-02T12:21:58;17.80;99.90
39601;DHT22;25297;44.758;11.310;2024-03-02T12:24:27;17.90;99.90
39601;DHT22;25297;44.758;11.310;2024-03-02T12:26:53;17.90;99.90
39601;DHT22;25297;44.758;11.310;2024-03-02T12:29:20;17.90;99.90
39601;DHT22;25297;44.758;11.310;2024-03-02T12:31:48;18.10;99.90
39601;DHT22;25297;44.758;11.310;2024-03-02T12:34:15;18.30;99.90
39601;DHT22;25297;44.758;11.310;2024-03-02T12:36:41;18.40;99.90
39601;DHT22;25297;44.758;11.310;2024-03-02T12:39:10;18.30;99.90
39601;DHT22;25297;44.758;11.310;2024-03-02T12:41:36;18.30;99.90
39601;DHT22;25297;44.758;11.310;2024-03-02T12:44:05;18.20;99.90
39601;DHT22;25297;44.758;11.310;2024-03-02T12:46:32;18.20;99.90
39601;DHT22;25297;44.758;11.310;2024-03-02T12:48:58;18.10;99.90
39601;DHT22;25297;44.758;11.310;2024-03-02T12:51:24;18.00;99.90
39601;DHT22;25297;44.758;11.310;2024-03-02T12:54:10;18.00;99.90
39601;DHT22;25297;44.758;11.310;2024-03-02T12:56:40;18.00;99.70
39601;DHT22;25297;44.758;11.310;2024-03-02T12:59:05;17.90;99.80
39601;DHT22;25297;44.758;11.310;2024-03-02T13:01:31;17.90;99.90
39601;DHT22;25297;44.758;11.310;2024-03-02T13:03:58;17.90;99.90
39601;DHT22;25297;44.758;11.310;2024-03-02T13:06:24;17.90;99.90
39601;DHT22;25297;44.758;11.310;2024-03-02T13:08:53;17.90;99.90
39601;DHT22;25297;44.758;11.310;2024-03-02T13:11:19;17.90;99.90
39601;DHT22;25297;44.758;11.310;2024-03-02T13:13:46;17.90;99.90
39601;DHT22;25297;44.758;11.310;2024-03-02T13:16:12;17.90;99.90
39601;DHT22;25297;44.758;11.310;2024-03-02T13:18:39;18.00;99.90
39601;DHT22;25297;44.758;11.310;2024-03-02T13:21:05;18.00;99.90
39601;DHT22;25297;44.758;11.310;2024-03-02T13:23:30;18.00;99.60
39601;DHT22;25297;44.758;11.310;2024-03-02T13:25:57;18.10;99.30
39601;DHT22;25297;44.758;11.310;2024-03-02T13:28:24;18.10;99.30
39601;DHT22;25297;44.758;11.310;2024-03-02T13:30:50;18.10;99.00
39601;DHT22;25297;44.758;11.310;2024-03-02T13:33:16;18.10;98.90
39601;DHT22;25297;44.758;11.310;2024-03-02T13:35:46;18.00;98.40
39601;DHT22;25297;44.758;11.310;2024-03-02T13:38:11;18.00;98.30
39601;DHT22;25297;44.758;11.310;2024-03-02T13:40:37;18.00;98.10
39601;DHT22;25297;44.758;11.310;2024-03-02T13:43:03;17.90;98.10
39601;DHT22;25297;44.758;11.310;2024-03-02T13:45:29;17.90;98.20
39601;DHT22;25297;44.758;11.310;2024-03-02T13:47:55;17.90;97.90
39601;DHT22;25297;44.758;11.310;2024-03-02T13:50:20;17.80;98.00
39601;DHT22;25297;44.758;11.310;2024-03-02T13:52:46;17.90;98.50
39601;DHT22;25297;44.758;11.310;2024-03-02T13:55:12;17.80;98.70
39601;DHT22;25297;44.758;11.310;2024-03-02T13:57:37;17.70;98.80
39601;DHT22;25297;44.758;11.310;2024-03-02T14:00:04;17.70;99.10
39601;DHT22;25297;44.758;11.310;2024-03-02T14:02:35;17.70;99.40
39601;DHT22;25297;44.758;11.310;2024-03-02T14:05:01;17.60;99.40
39601;DHT22;25297;44.758;11.310;2024-03-02T14:07:27;17.60;99.30
39601;DHT22;25297;44.758;11.310;2024-03-02T14:09:52;17.50;99.10
39601;DHT22;25297;44.758;11.310;2024-03-02T14:12:18;17.50;99.30
39601;DHT22;25297;44.758;11.310;2024-03-02T14:14:44;17.50;99.40
39601;DHT22;25297;44.758;11.310;2024-03-02T14:17:09;17.40;99.50
39601;DHT22;25297;44.758;11.310;2024-03-02T14:19:40;17.40;99.40
39601;DHT22;25297;44.758;11.310;2024-03-02T14:22:05;17.50;99.60
39601;DHT22;25297;44.758;11.310;2024-03-02T14:24:31;17.40;99.60
39601;DHT22;25297;44.758;11.310;2024-03-02T14:26:57;17.40;99.90
39601;DHT22;25297;44.758;11.310;2024-03-02T14:29:24;17.40;99.90
39601;DHT22;25297;44.758;11.310;2024-03-02T14:31:50;17.40;99.90
39601;DHT22;25297;44.758;11.310;2024-03-02T14:34:16;17.40;99.90
39601;DHT22;25297;44.758;11.310;2024-03-02T14:36:41;17.40;99.90
39601;DHT22;25297;44.758;11.310;2024-03-02T14:39:10;17.40;99.90
39601;DHT22;25297;44.758;11.310;2024-03-02T14:41:36;17.40;99.90
39601;DHT22;25297;44.758;11.310;2024-03-02T14:44:02;17.40;99.90
39601;DHT22;25297;44.758;11.310;2024-03-02T14:46:28;17.40;99.90
39601;DHT22;25297;44.758;11.310;2024-03-02T14:48:54;17.40;99.90
39601;DHT22;25297;44.758;11.310;2024-03-02T14:51:20;17.40;99.90
39601;DHT22;25297;44.758;11.310;2024-03-02T14:53:45;17.40;99.90
39601;DHT22;25297;44.758;11.310;2024-03-02T14:56:11;17.40;99.90
39601;DHT22;25297;44.758;11.310;2024-03-02T14:58:38;17.40;99.90
39601;DHT22;25297;44.758;11.310;2024-03-02T15:01:04;17.40;99.90
39601;DHT22;25297;44.758;11.310;2024-03-02T15:03:34;17.60;99.90
39601;DHT22;25297;44.758;11.310;2024-03-02T15:06:01;17.90;99.90
39601;DHT22;25297;44.758;11.310;2024-03-02T15:08:26;18.30;99.90
39601;DHT22;25297;44.758;11.310;2024-03-02T15:10:52;18.70;99.90
39601;DHT22;25297;44.758;11.310;2024-03-02T15:13:21;19.20;99.90
39601;DHT22;25297;44.758;11.310;2024-03-02T15:15:47;19.50;99.90
39601;DHT22;25297;44.758;11.310;2024-03-02T15:18:12;20.00;99.30
39601;DHT22;25297;44.758;11.310;2024-03-02T15:20:38;20.70;98.60
39601;DHT22;25297;44.758;11.310;2024-03-02T15:23:04;21.10;96.50
39601;DHT22;25297;44.758;11.310;2024-03-02T15:25:29;21.20;94.80
39601;DHT22;25297;44.758;11.310;2024-03-02T15:27:55;21.40;93.90